sensor_id;sensor_type;location;lat;lon;timestamp;temperature;humidity
5192;DHT22;2615;44.524;11.284;2023-06-22T00:00:38;26.20;60.90
5192;DHT22;2615;44.524;11.284;2023-06-22T00:03:09;26.10;60.90
5192;DHT22;2615;44.524;11.284;2023-06-22T00:05:37;26.10;61.30
5192;DHT22;2615;44.524;11.284;2023-06-22T00:08:05;26.10;61.20
5192;DHT22;2615;44.524;11.284;2023-06-22T00:10:33;26.10;61.10
5192;DHT22;2615;44.524;11.284;2023-06-22T00:13:01;26.10;61.20
5192;DHT22;2615;44.524;11.284;2023-06-22T00:15:31;26.10;61.20
5192;DHT22;2615;44.524;11.284;2023-06-22T00:17:59;26.10;61.50
5192;DHT22;2615;44.524;11.284;2023-06-22T00:20:29;26.10;61.60
5192;DHT22;2615;44.524;11.284;2023-06-22T00:22:59;26.10;61.40
5192;DHT22;2615;44.524;11.284;2023-06-22T00:25:27;26.10;61.40
5192;DHT22;2615;44.524;11.284;2023-06-22T00:27:55;26.10;61.50
5192;DHT22;2615;44.524;11.284;2023-06-22T00:30:23;26.10;61.60
5192;DHT22;2615;44.524;11.284;2023-06-22T00:32:53;26.10;61.70
5192;DHT22;2615;44.524;11.284;2023-06-22T00:35:22;26.10;61.60
5192;DHT22;2615;44.524;11.284;2023-06-22T00:37:54;26.10;61.70
5192;DHT22;2615;44.524;11.284;2023-06-22T00:40:27;26.10;61.50
5192;DHT22;2615;44.524;11.284;2023-06-22T00:42:56;26.10;61.40
5192;DHT22;2615;44.524;11.284;2023-06-22T00:45:24;26.10;61.30
5192;DHT22;2615;44.524;11.284;2023-06-22T00:47:56;26.10;61.50
5192;DHT22;2615;44.524;11.284;2023-06-22T00:50:26;26.10;61.40
5192;DHT22;2615;44.524;11.284;2023-06-22T00:52:57;26.10;61.40
5192;DHT22;2615;44.524;11.284;2023-06-22T00:55:26;26.10;61.30
5192;DHT22;2615;44.524;11.284;2023-06-22T00:57:54;26.00;61.00
5192;DHT22;2615;44.524;11.284;2023-06-22T01:00:24;26.00;60.90
5192;DHT22;2615;44.524;11.284;2023-06-22T01:02:54;26.00;60.80
5192;DHT22;2615;44.524;11.284;2023-06-22T01:05:22;26.00;60.70
5192;DHT22;2615;44.524;11.284;2023-06-22T01:08:11;25.90;60.60
5192;DHT22;2615;44.524;11.284;2023-06-22T01:10:43;25.90;60.80
5192;DHT22;2615;44.524;11.284;2023-06-22T01:13:19;25.90;61.10
5192;DHT22;2615;44.524;11.284;2023-06-22T01:15:55;25.90;61.50
5192;DHT22;2615;44.524;11.284;2023-06-22T01:18:27;25.80;61.30
5192;DHT22;2615;44.524;11.284;2023-06-22T01:20:57;25.80;61.60
5192;DHT22;2615;44.524;11.284;2023-06-22T01:23:36;25.80;62.00
5192;DHT22;2615;44.524;11.284;2023-06-22T01:26:15;25.80;61.80
5192;DHT22;2615;44.524;11.284;2023-06-22T01:28:48;25.80;61.60
5192;DHT22;2615;44.524;11.284;2023-06-22T01:31:18;25.70;61.50
5192;DHT22;2615;44.524;11.284;2023-06-22T01:33:50;25.70;61.80
5192;DHT22;2615;44.524;11.284;2023-06-22T01:36:19;25.80;61.90
5192;DHT22;2615;44.524;11.284;2023-06-22T01:38:47;25.70;61.80
5192;DHT22;2615;44.524;11.284;2023-06-22T01:41:16;25.70;61.60
5192;DHT22;2615;44.524;11.284;2023-06-22T01:43:47;25.70;61.40
5192;DHT22;2615;44.524;11.284;2023-06-22T01:46:16;25.70;61.50
5192;DHT22;2615;44.524;11.284;2023-06-22T01:48:46;25.70;61.60
5192;DHT22;2615;44.524;11.284;2023-06-22T01:51:15;25.70;61.30
5192;DHT22;2615;44.524;11.284;2023-06-22T01:53:43;25.70;61.40
5192;DHT22;2615;44.524;11.284;2023-06-22T01:56:11;25.60;61.40
5192;DHT22;2615;44.524;11.284;2023-06-22T01:58:49;25.60;61.30
5192;DHT22;2615;44.524;11.284;2023-06-22T02:01:22;25.50;61.30
5192;DHT22;2615;44.524;11.284;2023-06-22T02:03:57;25.50;61.50
5192;DHT22;2615;44.524;11.284;2023-06-22T02:06:31;25.50;61.70
5192;DHT22;2615;44.524;11.284;2023-06-22T02:09:08;25.50;61.40
5192;DHT22;2615;44.524;11.284;2023-06-22T02:11:41;25.50;61.30
5192;DHT22;2615;44.524;11.284;2023-06-22T02:14:12;25.40;61.40
5192;DHT22;2615;44.524;11.284;2023-06-22T02:16:42;25.30;61.90
5192;DHT22;2615;44.524;11.284;2023-06-22T02:19:10;25.30;62.10
5192;DHT22;2615;44.524;11.284;2023-06-22T02:21:38;25.30;62.30
5192;DHT22;2615;44.524;11.284;2023-06-22T02:24:06;25.20;62.60
5192;DHT22;2615;44.524;11.284;2023-06-22T02:26:35;25.20;62.60
5192;DHT22;2615;44.524;11.284;2023-06-22T02:29:05;25.20;62.60
5192;DHT22;2615;44.524;11.284;2023-06-22T02:31:34;25.20;62.90
5192;DHT22;2615;44.524;11.284;2023-06-22T02:34:02;25.20;62.80
5192;DHT22;2615;44.524;11.284;2023-06-22T02:36:31;25.10;62.70
5192;DHT22;2615;44.524;11.284;2023-06-22T02:39:00;25.10;63.00
5192;DHT22;2615;44.524;11.284;2023-06-22T02:41:30;25.00;62.90
5192;DHT22;2615;44.524;11.284;2023-06-22T02:43:58;25.10;63.10
5192;DHT22;2615;44.524;11.284;2023-06-22T02:46:26;25.10;63.30
5192;DHT22;2615;44.524;11.284;2023-06-22T02:48:56;25.10;63.30
5192;DHT22;2615;44.524;11.284;2023-06-22T02:51:24;25.10;63.30
5192;DHT22;2615;44.524;11.284;2023-06-22T02:53:52;25.10;63.10
5192;DHT22;2615;44.524;11.284;2023-06-22T02:56:24;25.10;63.20
5192;DHT22;2615;44.524;11.284;2023-06-22T02:58:52;25.00;63.30
5192;DHT22;2615;44.524;11.284;2023-06-22T03:01:20;25.00;63.50
5192;DHT22;2615;44.524;11.284;2023-06-22T03:03:51;25.00;63.40
5192;DHT22;2615;44.524;11.284;2023-06-22T03:06:21;25.00;63.30
5192;DHT22;2615;44.524;11.284;2023-06-22T03:08:50;24.90;63.30
5192;DHT22;2615;44.524;11.284;2023-06-22T03:11:18;24.90;63.50
5192;DHT22;2615;44.524;11.284;2023-06-22T03:13:46;24.90;63.60
5192;DHT22;2615;44.524;11.284;2023-06-22T03:16:15;24.80;63.60
5192;DHT22;2615;44.524;11.284;2023-06-22T03:18:43;24.80;63.60
5192;DHT22;2615;44.524;11.284;2023-06-22T03:21:11;24.80;63.50
5192;DHT22;2615;44.524;11.284;2023-06-22T03:23:40;24.80;63.50
5192;DHT22;2615;44.524;11.284;2023-06-22T03:26:09;24.70;63.40
5192;DHT22;2615;44.524;11.284;2023-06-22T03:28:37;24.70;63.60
5192;DHT22;2615;44.524;11.284;2023-06-22T03:31:05;24.70;64.00
5192;DHT22;2615;44.524;11.284;2023-06-22T03:33:34;24.70;63.90
5192;DHT22;2615;44.524;11.284;2023-06-22T03:36:03;24.70;63.70
5192;DHT22;2615;44.524;11.284;2023-06-22T03:38:31;24.70;63.70
5192;DHT22;2615;44.524;11.284;2023-06-22T03:41:00;24.70;63.60
5192;DHT22;2615;44.524;11.284;2023-06-22T03:43:28;24.70;63.80
5192;DHT22;2615;44.524;11.284;2023-06-22T03:45:57;24.70;64.00
5192;DHT22;2615;44.524;11.284;2023-06-22T03:48:25;24.70;63.90
5192;DHT22;2615;44.524;11.284;2023-06-22T03:50:53;24.60;64.00
5192;DHT22;2615;44.524;11.284;2023-06-22T03:53:21;24.60;64.00
5192;DHT22;2615;44.524;11.284;2023-06-22T03:55:50;24.60;64.00
5192;DHT22;2615;44.524;11.284;2023-06-22T03:58:21;24.60;64.10
5192;DHT22;2615;44.524;11.284;2023-06-22T04:00:50;24.60;64.00
5192;DHT22;2615;44.524;11.284;2023-06-22T04:03:19;24.50;63.90
5192;DHT22;2615;44.524;11.284;2023-06-22T04:05:48;24.60;64.10
5192;DHT22;2615;44.524;11.284;2023-06-22T04:08:16;24.50;64.10
5192;DHT22;2615;44.524;11.284;2023-06-22T04:10:44;24.50;65.20
5192;DHT22;2615;44.524;11.284;2023-06-22T04:13:12;24.60;64.80
5192;DHT22;2615;44.524;11.284;2023-06-22T04:15:42;24.60;64.80
5192;DHT22;2615;44.524;11.284;2023-06-22T04:18:10;24.60;65.00
5192;DHT22;2615;44.524;11.284;2023-06-22T04:20:38;24.70;65.00
5192;DHT22;2615;44.524;11.284;2023-06-22T04:23:07;24.70;65.10
5192;DHT22;2615;44.524;11.284;2023-06-22T04:25:35;24.70;65.00
5192;DHT22;2615;44.524;11.284;2023-06-22T04:28:03;24.70;64.60
5192;DHT22;2615;44.524;11.284;2023-06-22T04:30:32;24.70;64.60
5192;DHT22;2615;44.524;11.284;2023-06-22T04:33:02;24.80;64.90
5192;DHT22;2615;44.524;11.284;2023-06-22T04:35:30;24.80;64.70
5192;DHT22;2615;44.524;11.284;2023-06-22T04:37:58;24.80;64.50
5192;DHT22;2615;44.524;11.284;2023-06-22T04:40:26;24.90;64.60
5192;DHT22;2615;44.524;11.284;2023-06-22T04:42:55;24.90;64.60
5192;DHT22;2615;44.524;11.284;2023-06-22T04:45:23;24.90;64.60
5192;DHT22;2615;44.524;11.284;2023-06-22T04:47:51;24.90;64.50
5192;DHT22;2615;44.524;11.284;2023-06-22T04:50:21;24.90;64.30
5192;DHT22;2615;44.524;11.284;2023-06-22T04:52:51;24.90;64.40
5192;DHT22;2615;44.524;11.284;2023-06-22T04:55:19;24.90;64.40
5192;DHT22;2615;44.524;11.284;2023-06-22T04:57:48;24.90;64.40
5192;DHT22;2615;44.524;11.284;2023-06-22T05:00:17;24.90;64.50
5192;DHT22;2615;44.524;11.284;2023-06-22T05:02:50;25.00;64.40
5192;DHT22;2615;44.524;11.284;2023-06-22T05:05:25;25.00;64.20
5192;DHT22;2615;44.524;11.284;2023-06-22T05:07:56;25.00;64.20
5192;DHT22;2615;44.524;11.284;2023-06-22T05:10:27;25.10;64.40
5192;DHT22;2615;44.524;11.284;2023-06-22T05:12:55;25.10;64.20
5192;DHT22;2615;44.524;11.284;2023-06-22T05:15:23;25.20;64.10
5192;DHT22;2615;44.524;11.284;2023-06-22T05:17:57;25.20;63.90
5192;DHT22;2615;44.524;11.284;2023-06-22T05:20:26;25.20;64.60
5192;DHT22;2615;44.524;11.284;2023-06-22T05:22:55;25.30;64.00
5192;DHT22;2615;44.524;11.284;2023-06-22T05:25:23;25.30;63.70
5192;DHT22;2615;44.524;11.284;2023-06-22T05:27:51;25.40;63.40
5192;DHT22;2615;44.524;11.284;2023-06-22T05:30:20;25.40;63.20
5192;DHT22;2615;44.524;11.284;2023-06-22T05:32:48;25.50;63.20
5192;DHT22;2615;44.524;11.284;2023-06-22T05:35:16;25.50;63.00
5192;DHT22;2615;44.524;11.284;2023-06-22T05:37:45;25.60;63.00
5192;DHT22;2615;44.524;11.284;2023-06-22T05:40:14;25.60;62.90
5192;DHT22;2615;44.524;11.284;2023-06-22T05:42:42;25.70;62.80
5192;DHT22;2615;44.524;11.284;2023-06-22T05:45:11;25.70;62.60
5192;DHT22;2615;44.524;11.284;2023-06-22T05:47:39;25.80;62.70
5192;DHT22;2615;44.524;11.284;2023-06-22T05:50:08;25.80;62.80
5192;DHT22;2615;44.524;11.284;2023-06-22T05:52:39;25.90;63.00
5192;DHT22;2615;44.524;11.284;2023-06-22T05:55:09;26.00;62.90
5192;DHT22;2615;44.524;11.284;2023-06-22T05:57:37;26.10;62.90
5192;DHT22;2615;44.524;11.284;2023-06-22T06:00:06;26.20;62.70
5192;DHT22;2615;44.524;11.284;2023-06-22T06:02:37;26.20;62.50
5192;DHT22;2615;44.524;11.284;2023-06-22T06:05:11;26.30;62.20
5192;DHT22;2615;44.524;11.284;2023-06-22T06:07:41;26.30;62.00
5192;DHT22;2615;44.524;11.284;2023-06-22T06:10:11;26.30;61.90
5192;DHT22;2615;44.524;11.284;2023-06-22T06:12:39;26.30;61.70
5192;DHT22;2615;44.524;11.284;2023-06-22T06:15:08;26.30;61.80
5192;DHT22;2615;44.524;11.284;2023-06-22T06:17:45;26.30;61.90
5192;DHT22;2615;44.524;11.284;2023-06-22T06:20:14;26.30;62.00
5192;DHT22;2615;44.524;11.284;2023-06-22T06:22:42;26.30;62.00
5192;DHT22;2615;44.524;11.284;2023-06-22T06:25:12;26.30;62.10
5192;DHT22;2615;44.524;11.284;2023-06-22T06:27:43;26.30;62.20
5192;DHT22;2615;44.524;11.284;2023-06-22T06:30:12;26.30;62.90
5192;DHT22;2615;44.524;11.284;2023-06-22T06:32:42;26.30;62.10
5192;DHT22;2615;44.524;11.284;2023-06-22T06:35:13;26.30;62.20
5192;DHT22;2615;44.524;11.284;2023-06-22T06:37:46;26.30;62.30
5192;DHT22;2615;44.524;11.284;2023-06-22T06:40:16;26.40;62.50
5192;DHT22;2615;44.524;11.284;2023-06-22T06:42:47;26.40;62.60
5192;DHT22;2615;44.524;11.284;2023-06-22T06:45:16;26.50;62.60
5192;DHT22;2615;44.524;11.284;2023-06-22T06:47:45;26.50;62.40
5192;DHT22;2615;44.524;11.284;2023-06-22T06:50:14;26.50;62.20
5192;DHT22;2615;44.524;11.284;2023-06-22T06:52:42;26.60;62.20
5192;DHT22;2615;44.524;11.284;2023-06-22T06:55:11;26.70;62.10
5192;DHT22;2615;44.524;11.284;2023-06-22T06:57:42;26.70;61.90
5192;DHT22;2615;44.524;11.284;2023-06-22T07:00:12;26.80;61.90
5192;DHT22;2615;44.524;11.284;2023-06-22T07:02:42;26.90;61.80
5192;DHT22;2615;44.524;11.284;2023-06-22T07:05:11;27.00;61.60
5192;DHT22;2615;44.524;11.284;2023-06-22T07:07:40;27.10;61.60
5192;DHT22;2615;44.524;11.284;2023-06-22T07:10:10;27.20;61.40
5192;DHT22;2615;44.524;11.284;2023-06-22T07:12:38;27.30;61.30
5192;DHT22;2615;44.524;11.284;2023-06-22T07:15:09;27.40;61.00
5192;DHT22;2615;44.524;11.284;2023-06-22T07:17:39;27.50;61.00
5192;DHT22;2615;44.524;11.284;2023-06-22T07:20:09;27.60;60.90
5192;DHT22;2615;44.524;11.284;2023-06-22T07:22:40;27.70;60.80
5192;DHT22;2615;44.524;11.284;2023-06-22T07:25:09;27.70;60.80
5192;DHT22;2615;44.524;11.284;2023-06-22T07:27:38;27.80;60.50
5192;DHT22;2615;44.524;11.284;2023-06-22T07:30:11;27.90;60.20
5192;DHT22;2615;44.524;11.284;2023-06-22T07:32:40;28.00;60.10
5192;DHT22;2615;44.524;11.284;2023-06-22T07:35:08;28.10;60.00
5192;DHT22;2615;44.524;11.284;2023-06-22T07:37:38;28.20;59.80
5192;DHT22;2615;44.524;11.284;2023-06-22T07:40:07;28.30;59.80
5192;DHT22;2615;44.524;11.284;2023-06-22T07:42:36;28.40;59.70
5192;DHT22;2615;44.524;11.284;2023-06-22T07:45:06;28.50;59.60
5192;DHT22;2615;44.524;11.284;2023-06-22T07:47:36;28.60;59.60
5192;DHT22;2615;44.524;11.284;2023-06-22T07:50:05;28.70;59.40
5192;DHT22;2615;44.524;11.284;2023-06-22T07:52:33;28.80;59.30
5192;DHT22;2615;44.524;11.284;2023-06-22T07:55:02;28.90;59.30
5192;DHT22;2615;44.524;11.284;2023-06-22T07:57:31;29.00;59.10
5192;DHT22;2615;44.524;11.284;2023-06-22T08:00:04;29.10;58.90
5192;DHT22;2615;44.524;11.284;2023-06-22T08:02:41;29.20;58.80
5192;DHT22;2615;44.524;11.284;2023-06-22T08:05:10;29.30;58.90
5192;DHT22;2615;44.524;11.284;2023-06-22T08:07:41;29.40;58.90
5192;DHT22;2615;44.524;11.284;2023-06-22T08:10:13;29.50;58.50
5192;DHT22;2615;44.524;11.284;2023-06-22T08:12:41;29.60;58.30
5192;DHT22;2615;44.524;11.284;2023-06-22T08:15:10;29.70;58.30
5192;DHT22;2615;44.524;11.284;2023-06-22T08:17:39;29.80;58.30
5192;DHT22;2615;44.524;11.284;2023-06-22T08:20:09;29.90;58.20
5192;DHT22;2615;44.524;11.284;2023-06-22T08:22:39;30.00;58.00
5192;DHT22;2615;44.524;11.284;2023-06-22T08:25:08;30.10;57.80
5192;DHT22;2615;44.524;11.284;2023-06-22T08:27:37;30.30;57.70
5192;DHT22;2615;44.524;11.284;2023-06-22T08:30:07;30.30;57.30
5192;DHT22;2615;44.524;11.284;2023-06-22T08:32:35;30.50;57.00
5192;DHT22;2615;44.524;11.284;2023-06-22T08:35:05;30.60;56.70
5192;DHT22;2615;44.524;11.284;2023-06-22T08:37:35;30.70;56.40
5192;DHT22;2615;44.524;11.284;2023-06-22T08:40:05;30.80;56.20
5192;DHT22;2615;44.524;11.284;2023-06-22T08:42:34;30.90;56.10
5192;DHT22;2615;44.524;11.284;2023-06-22T08:45:03;30.90;55.80
5192;DHT22;2615;44.524;11.284;2023-06-22T08:47:31;31.10;55.80
5192;DHT22;2615;44.524;11.284;2023-06-22T08:50:00;31.10;55.60
5192;DHT22;2615;44.524;11.284;2023-06-22T08:52:31;31.20;55.10
5192;DHT22;2615;44.524;11.284;2023-06-22T08:54:59;31.30;55.00
5192;DHT22;2615;44.524;11.284;2023-06-22T08:57:28;31.40;54.90
5192;DHT22;2615;44.524;11.284;2023-06-22T08:59:57;31.50;54.70
5192;DHT22;2615;44.524;11.284;2023-06-22T09:02:26;31.60;54.40
5192;DHT22;2615;44.524;11.284;2023-06-22T09:04:58;31.60;54.10
5192;DHT22;2615;44.524;11.284;2023-06-22T09:07:26;31.70;54.10
5192;DHT22;2615;44.524;11.284;2023-06-22T09:09:56;31.80;53.80
5192;DHT22;2615;44.524;11.284;2023-06-22T09:12:27;31.90;53.30
5192;DHT22;2615;44.524;11.284;2023-06-22T09:14:57;31.90;52.80
5192;DHT22;2615;44.524;11.284;2023-06-22T09:17:26;32.00;52.70
5192;DHT22;2615;44.524;11.284;2023-06-22T09:19:55;32.10;52.80
5192;DHT22;2615;44.524;11.284;2023-06-22T09:22:23;32.20;52.60
5192;DHT22;2615;44.524;11.284;2023-06-22T09:24:57;32.30;52.10
5192;DHT22;2615;44.524;11.284;2023-06-22T09:27:26;32.40;52.00
5192;DHT22;2615;44.524;11.284;2023-06-22T09:29:54;32.60;51.90
5192;DHT22;2615;44.524;11.284;2023-06-22T09:32:25;32.70;51.50
5192;DHT22;2615;44.524;11.284;2023-06-22T09:34:53;32.80;51.30
5192;DHT22;2615;44.524;11.284;2023-06-22T09:37:22;33.00;50.90
5192;DHT22;2615;44.524;11.284;2023-06-22T09:39:50;33.10;50.30
5192;DHT22;2615;44.524;11.284;2023-06-22T09:42:19;33.20;50.20
5192;DHT22;2615;44.524;11.284;2023-06-22T09:44:47;33.40;49.70
5192;DHT22;2615;44.524;11.284;2023-06-22T09:47:15;33.50;49.40
5192;DHT22;2615;44.524;11.284;2023-06-22T09:49:43;33.70;49.20
5192;DHT22;2615;44.524;11.284;2023-06-22T09:52:15;33.80;48.90
5192;DHT22;2615;44.524;11.284;2023-06-22T09:54:43;33.90;48.60
5192;DHT22;2615;44.524;11.284;2023-06-22T09:57:11;34.00;48.40
5192;DHT22;2615;44.524;11.284;2023-06-22T09:59:41;34.10;48.10
5192;DHT22;2615;44.524;11.284;2023-06-22T10:02:09;34.20;47.80
5192;DHT22;2615;44.524;11.284;2023-06-22T10:04:37;34.40;47.70
5192;DHT22;2615;44.524;11.284;2023-06-22T10:07:07;34.40;47.50
5192;DHT22;2615;44.524;11.284;2023-06-22T10:09:35;34.50;47.30
5192;DHT22;2615;44.524;11.284;2023-06-22T10:12:04;34.70;47.00
5192;DHT22;2615;44.524;11.284;2023-06-22T10:14:32;34.80;46.70
5192;DHT22;2615;44.524;11.284;2023-06-22T10:17:02;34.90;46.50
5192;DHT22;2615;44.524;11.284;2023-06-22T10:19:30;35.00;46.20
5192;DHT22;2615;44.524;11.284;2023-06-22T10:21:59;35.20;45.80
5192;DHT22;2615;44.524;11.284;2023-06-22T10:24:27;35.30;45.50
5192;DHT22;2615;44.524;11.284;2023-06-22T10:26:55;35.40;45.10
5192;DHT22;2615;44.524;11.284;2023-06-22T10:29:23;35.40;44.80
5192;DHT22;2615;44.524;11.284;2023-06-22T10:31:51;35.40;44.90
5192;DHT22;2615;44.524;11.284;2023-06-22T10:34:21;35.50;44.70
5192;DHT22;2615;44.524;11.284;2023-06-22T10:36:49;35.60;45.50
5192;DHT22;2615;44.524;11.284;2023-06-22T10:39:17;35.70;46.30
5192;DHT22;2615;44.524;11.284;2023-06-22T10:41:45;35.70;46.20
5192;DHT22;2615;44.524;11.284;2023-06-22T10:44:13;35.70;45.70
5192;DHT22;2615;44.524;11.284;2023-06-22T10:46:41;35.70;45.00
5192;DHT22;2615;44.524;11.284;2023-06-22T10:49:09;35.70;44.80
5192;DHT22;2615;44.524;11.284;2023-06-22T10:51:39;35.70;44.90
5192;DHT22;2615;44.524;11.284;2023-06-22T10:54:08;35.70;44.70
5192;DHT22;2615;44.524;11.284;2023-06-22T10:56:36;35.70;44.60
5192;DHT22;2615;44.524;11.284;2023-06-22T10:59:04;35.70;44.80
5192;DHT22;2615;44.524;11.284;2023-06-22T11:01:32;35.70;44.70
5192;DHT22;2615;44.524;11.284;2023-06-22T11:04:03;35.80;44.60
5192;DHT22;2615;44.524;11.284;2023-06-22T11:06:32;35.90;44.30
5192;DHT22;2615;44.524;11.284;2023-06-22T11:09:01;36.00;44.00
5192;DHT22;2615;44.524;11.284;2023-06-22T11:11:50;36.10;43.50
5192;DHT22;2615;44.524;11.284;2023-06-22T11:14:20;36.30;43.10
5192;DHT22;2615;44.524;11.284;2023-06-22T11:16:49;36.40;42.80
5192;DHT22;2615;44.524;11.284;2023-06-22T11:19:17;36.60;42.50
5192;DHT22;2615;44.524;11.284;2023-06-22T11:21:45;36.70;41.90
5192;DHT22;2615;44.524;11.284;2023-06-22T11:24:16;36.80;41.70
5192;DHT22;2615;44.524;11.284;2023-06-22T11:26:44;37.00;41.60
5192;DHT22;2615;44.524;11.284;2023-06-22T11:29:12;37.00;41.20
5192;DHT22;2615;44.524;11.284;2023-06-22T11:32:00;37.20;41.20
5192;DHT22;2615;44.524;11.284;2023-06-22T11:34:29;37.40;41.20
5192;DHT22;2615;44.524;11.284;2023-06-22T11:36:57;37.40;41.00
5192;DHT22;2615;44.524;11.284;2023-06-22T11:39:26;37.50;40.60
5192;DHT22;2615;44.524;11.284;2023-06-22T11:42:08;37.70;40.70
5192;DHT22;2615;44.524;11.284;2023-06-22T11:44:37;37.70;42.90
5192;DHT22;2615;44.524;11.284;2023-06-22T11:47:06;37.80;40.70
5192;DHT22;2615;44.524;11.284;2023-06-22T11:49:34;37.90;39.80
5192;DHT22;2615;44.524;11.284;2023-06-22T11:52:02;37.90;39.30
5192;DHT22;2615;44.524;11.284;2023-06-22T11:54:32;38.00;39.70
5192;DHT22;2615;44.524;11.284;2023-06-22T11:57:00;38.00;39.70
5192;DHT22;2615;44.524;11.284;2023-06-22T11:59:28;38.10;39.60
5192;DHT22;2615;44.524;11.284;2023-06-22T12:01:57;38.10;39.20
5192;DHT22;2615;44.524;11.284;2023-06-22T12:04:26;38.30;39.20
5192;DHT22;2615;44.524;11.284;2023-06-22T12:06:54;38.30;39.40
5192;DHT22;2615;44.524;11.284;2023-06-22T12:09:22;38.40;39.40
5192;DHT22;2615;44.524;11.284;2023-06-22T12:11:51;38.40;39.20
5192;DHT22;2615;44.524;11.284;2023-06-22T12:14:20;38.50;38.90
5192;DHT22;2615;44.524;11.284;2023-06-22T12:16:48;38.50;38.50
5192;DHT22;2615;44.524;11.284;2023-06-22T12:19:16;38.50;38.30
5192;DHT22;2615;44.524;11.284;2023-06-22T12:21:44;38.50;38.00
5192;DHT22;2615;44.524;11.284;2023-06-22T12:24:13;38.50;37.70
5192;DHT22;2615;44.524;11.284;2023-06-22T12:26:41;38.50;37.70
5192;DHT22;2615;44.524;11.284;2023-06-22T12:29:11;38.50;37.70
5192;DHT22;2615;44.524;11.284;2023-06-22T12:31:39;38.50;37.40
5192;DHT22;2615;44.524;11.284;2023-06-22T12:34:08;38.50;38.10
5192;DHT22;2615;44.524;11.284;2023-06-22T12:36:36;38.40;37.40
5192;DHT22;2615;44.524;11.284;2023-06-22T12:39:04;38.40;37.10
5192;DHT22;2615;44.524;11.284;2023-06-22T12:41:33;38.30;37.00
5192;DHT22;2615;44.524;11.284;2023-06-22T12:44:01;38.10;37.10
5192;DHT22;2615;44.524;11.284;2023-06-22T12:46:31;37.90;37.30
5192;DHT22;2615;44.524;11.284;2023-06-22T12:49:04;37.70;37.50
5192;DHT22;2615;44.524;11.284;2023-06-22T12:51:33;37.60;37.60
5192;DHT22;2615;44.524;11.284;2023-06-22T12:54:01;37.40;37.70
5192;DHT22;2615;44.524;11.284;2023-06-22T12:56:29;37.20;37.50
5192;DHT22;2615;44.524;11.284;2023-06-22T12:58:57;37.10;37.40
5192;DHT22;2615;44.524;11.284;2023-06-22T13:01:26;37.00;37.50
5192;DHT22;2615;44.524;11.284;2023-06-22T13:03:56;36.80;37.80
5192;DHT22;2615;44.524;11.284;2023-06-22T13:06:24;36.70;38.10
5192;DHT22;2615;44.524;11.284;2023-06-22T13:08:52;36.60;38.30
5192;DHT22;2615;44.524;11.284;2023-06-22T13:11:23;36.50;38.60
5192;DHT22;2615;44.524;11.284;2023-06-22T13:13:51;36.40;38.70
5192;DHT22;2615;44.524;11.284;2023-06-22T13:16:19;36.30;38.60
5192;DHT22;2615;44.524;11.284;2023-06-22T13:18:47;36.30;38.40
5192;DHT22;2615;44.524;11.284;2023-06-22T13:21:17;36.20;38.60
5192;DHT22;2615;44.524;11.284;2023-06-22T13:23:45;36.10;38.70
5192;DHT22;2615;44.524;11.284;2023-06-22T13:26:13;36.20;38.90
5192;DHT22;2615;44.524;11.284;2023-06-22T13:28:41;36.10;38.90
5192;DHT22;2615;44.524;11.284;2023-06-22T13:31:09;36.00;38.70
5192;DHT22;2615;44.524;11.284;2023-06-22T13:33:38;36.00;38.80
5192;DHT22;2615;44.524;11.284;2023-06-22T13:36:07;35.90;38.90
5192;DHT22;2615;44.524;11.284;2023-06-22T13:38:37;35.90;38.90
5192;DHT22;2615;44.524;11.284;2023-06-22T13:41:05;35.90;38.90
5192;DHT22;2615;44.524;11.284;2023-06-22T13:43:33;35.90;39.10
5192;DHT22;2615;44.524;11.284;2023-06-22T13:46:02;35.80;39.10
5192;DHT22;2615;44.524;11.284;2023-06-22T13:48:30;35.70;38.90
5192;DHT22;2615;44.524;11.284;2023-06-22T13:50:58;35.70;38.80
5192;DHT22;2615;44.524;11.284;2023-06-22T13:53:26;35.70;38.60
5192;DHT22;2615;44.524;11.284;2023-06-22T13:55:56;35.70;38.60
5192;DHT22;2615;44.524;11.284;2023-06-22T13:58:24;35.60;38.80
5192;DHT22;2615;44.524;11.284;2023-06-22T14:00:52;35.50;39.00
5192;DHT22;2615;44.524;11.284;2023-06-22T14:03:23;35.50;39.20
5192;DHT22;2615;44.524;11.284;2023-06-22T14:05:51;35.50;39.20
5192;DHT22;2615;44.524;11.284;2023-06-22T14:08:21;35.50;39.10
5192;DHT22;2615;44.524;11.284;2023-06-22T14:10:53;35.40;40.10
5192;DHT22;2615;44.524;11.284;2023-06-22T14:13:22;35.40;39.80
5192;DHT22;2615;44.524;11.284;2023-06-22T14:15:51;35.30;39.70
5192;DHT22;2615;44.524;11.284;2023-06-22T14:18:20;35.30;39.80
5192;DHT22;2615;44.524;11.284;2023-06-22T14:20:50;35.30;40.00
5192;DHT22;2615;44.524;11.284;2023-06-22T14:23:18;35.20;39.90
5192;DHT22;2615;44.524;11.284;2023-06-22T14:25:46;35.20;40.10
5192;DHT22;2615;44.524;11.284;2023-06-22T14:28:14;35.20;40.50
5192;DHT22;2615;44.524;11.284;2023-06-22T14:30:44;35.20;40.50
5192;DHT22;2615;44.524;11.284;2023-06-22T14:33:13;35.10;40.50
5192;DHT22;2615;44.524;11.284;2023-06-22T14:35:41;35.00;40.80
5192;DHT22;2615;44.524;11.284;2023-06-22T14:38:09;34.90;41.20
5192;DHT22;2615;44.524;11.284;2023-06-22T14:40:37;34.90;41.60
5192;DHT22;2615;44.524;11.284;2023-06-22T14:43:25;34.80;41.50
5192;DHT22;2615;44.524;11.284;2023-06-22T14:45:55;34.80;41.70
5192;DHT22;2615;44.524;11.284;2023-06-22T14:48:23;34.70;41.90
5192;DHT22;2615;44.524;11.284;2023-06-22T14:50:51;34.70;42.20
5192;DHT22;2615;44.524;11.284;2023-06-22T14:53:20;34.60;42.50
5192;DHT22;2615;44.524;11.284;2023-06-22T14:55:48;34.60;42.70
5192;DHT22;2615;44.524;11.284;2023-06-22T14:58:16;34.60;42.80
5192;DHT22;2615;44.524;11.284;2023-06-22T15:00:45;34.50;43.10
5192;DHT22;2615;44.524;11.284;2023-06-22T15:03:14;34.50;43.20
5192;DHT22;2615;44.524;11.284;2023-06-22T15:05:48;34.40;43.10
5192;DHT22;2615;44.524;11.284;2023-06-22T15:08:16;34.40;43.30
5192;DHT22;2615;44.524;11.284;2023-06-22T15:10:44;34.40;43.60
5192;DHT22;2615;44.524;11.284;2023-06-22T15:13:12;34.40;43.40
5192;DHT22;2615;44.524;11.284;2023-06-22T15:15:41;34.40;43.60
5192;DHT22;2615;44.524;11.284;2023-06-22T15:18:09;34.50;44.00
5192;DHT22;2615;44.524;11.284;2023-06-22T15:20:38;34.40;44.30
5192;DHT22;2615;44.524;11.284;2023-06-22T15:23:06;34.40;44.60
5192;DHT22;2615;44.524;11.284;2023-06-22T15:25:35;34.30;44.80
5192;DHT22;2615;44.524;11.284;2023-06-22T15:28:05;34.20;44.70
5192;DHT22;2615;44.524;11.284;2023-06-22T15:30:34;34.20;44.70
5192;DHT22;2615;44.524;11.284;2023-06-22T15:33:02;34.10;44.70
5192;DHT22;2615;44.524;11.284;2023-06-22T15:35:30;34.00;44.40
5192;DHT22;2615;44.524;11.284;2023-06-22T15:38:00;34.00;44.40
5192;DHT22;2615;44.524;11.284;2023-06-22T15:40:28;34.00;44.50
5192;DHT22;2615;44.524;11.284;2023-06-22T15:42:57;33.90;44.70
5192;DHT22;2615;44.524;11.284;2023-06-22T15:45:25;33.90;45.00
5192;DHT22;2615;44.524;11.284;2023-06-22T15:47:53;33.80;45.10
5192;DHT22;2615;44.524;11.284;2023-06-22T15:50:22;33.80;45.30
5192;DHT22;2615;44.524;11.284;2023-06-22T15:52:50;33.80;45.60
5192;DHT22;2615;44.524;11.284;2023-06-22T15:55:20;33.70;45.80
5192;DHT22;2615;44.524;11.284;2023-06-22T15:57:48;33.70;46.10